sensor_id;sensor_type;location;lat;lon;timestamp;temperature;humidity
36670;DHT22;22662;47.412;9.742;2023-01-16T00:01:49;1.70;99.90
36670;DHT22;22662;47.412;9.742;2023-01-16T00:04:15;1.80;99.90
36670;DHT22;22662;47.412;9.742;2023-01-16T00:06:40;1.80;99.90
36670;DHT22;22662;47.412;9.742;2023-01-16T00:09:06;1.80;99.90
36670;DHT22;22662;47.412;9.742;2023-01-16T00:11:32;1.80;99.90
36670;DHT22;22662;47.412;9.742;2023-01-16T00:13:58;1.80;99.90
36670;DHT22;22662;47.412;9.742;2023-01-16T00:16:25;1.80;99.90
36670;DHT22;22662;47.412;9.742;2023-01-16T00:18:51;1.80;99.90
36670;DHT22;22662;47.412;9.742;2023-01-16T00:21:16;1.70;99.90
36670;DHT22;22662;47.412;9.742;2023-01-16T00:23:42;1.70;99.90
36670;DHT22;22662;47.412;9.742;2023-01-16T00:26:09;1.70;99.90
36670;DHT22;22662;47.412;9.742;2023-01-16T00:28:38;1.70;99.90
36670;DHT22;22662;47.412;9.742;2023-01-16T00:31:05;1.70;99.90
36670;DHT22;22662;47.412;9.742;2023-01-16T00:33:31;1.70;99.90
36670;DHT22;22662;47.412;9.742;2023-01-16T00:35:57;1.70;99.90
36670;DHT22;22662;47.412;9.742;2023-01-16T00:38:23;1.70;99.90
36670;DHT22;22662;47.412;9.742;2023-01-16T00:40:48;1.60;99.90
36670;DHT22;22662;47.412;9.742;2023-01-16T00:43:14;1.60;99.90
36670;DHT22;22662;47.412;9.742;2023-01-16T00:45:40;1.60;99.90
36670;DHT22;22662;47.412;9.742;2023-01-16T00:48:06;1.60;99.90
36670;DHT22;22662;47.412;9.742;2023-01-16T00:50:32;1.50;99.90
36670;DHT22;22662;47.412;9.742;2023-01-16T00:52:58;1.50;99.90
36670;DHT22;22662;47.412;9.742;2023-01-16T00:55:23;1.50;99.90
36670;DHT22;22662;47.412;9.742;2023-01-16T00:57:49;1.60;99.90
36670;DHT22;22662;47.412;9.742;2023-01-16T01:00:16;1.60;99.90
36670;DHT22;22662;47.412;9.742;2023-01-16T01:02:43;1.60;99.90
36670;DHT22;22662;47.412;9.742;2023-01-16T01:05:09;1.60;99.90
36670;DHT22;22662;47.412;9.742;2023-01-16T01:07:34;1.60;99.90
36670;DHT22;22662;47.412;9.742;2023-01-16T01:10:00;1.70;99.90
36670;DHT22;22662;47.412;9.742;2023-01-16T01:12:26;1.60;99.90
36670;DHT22;22662;47.412;9.742;2023-01-16T01:14:51;1.60;99.90
36670;DHT22;22662;47.412;9.742;2023-01-16T01:17:17;1.50;99.90
36670;DHT22;22662;47.412;9.742;2023-01-16T01:19:42;1.60;99.90
36670;DHT22;22662;47.412;9.742;2023-01-16T01:22:08;1.60;99.90
36670;DHT22;22662;47.412;9.742;2023-01-16T01:24:34;1.60;99.90
36670;DHT22;22662;47.412;9.742;2023-01-16T01:26:59;1.50;99.90
36670;DHT22;22662;47.412;9.742;2023-01-16T01:29:25;1.50;99.90
36670;DHT22;22662;47.412;9.742;2023-01-16T01:31:51;1.50;99.90
36670;DHT22;22662;47.412;9.742;2023-01-16T01:34:16;1.40;99.90
36670;DHT22;22662;47.412;9.742;2023-01-16T01:36:42;1.40;99.90
36670;DHT22;22662;47.412;9.742;2023-01-16T01:39:08;1.40;99.90
36670;DHT22;22662;47.412;9.742;2023-01-16T01:41:33;1.40;99.90
36670;DHT22;22662;47.412;9.742;2023-01-16T01:43:59;1.40;99.90
36670;DHT22;22662;47.412;9.742;2023-01-16T01:52:00;1.30;99.90
36670;DHT22;22662;47.412;9.742;2023-01-16T01:54:31;1.30;99.90
36670;DHT22;22662;47.412;9.742;2023-01-16T01:57:30;1.20;99.90
36670;DHT22;22662;47.412;9.742;2023-01-16T02:00:09;1.20;99.90
36670;DHT22;22662;47.412;9.742;2023-01-16T02:02:41;1.10;99.90
36670;DHT22;22662;47.412;9.742;2023-01-16T02:05:10;1.00;99.90
36670;DHT22;22662;47.412;9.742;2023-01-16T02:07:38;1.00;99.90
36670;DHT22;22662;47.412;9.742;2023-01-16T02:10:29;1.00;99.90
36670;DHT22;22662;47.412;9.742;2023-01-16T02:12:56;1.00;99.90
36670;DHT22;22662;47.412;9.742;2023-01-16T02:15:23;1.10;99.90
36670;DHT22;22662;47.412;9.742;2023-01-16T02:17:49;1.10;99.90
36670;DHT22;22662;47.412;9.742;2023-01-16T02:26:52;0.90;99.90
36670;DHT22;22662;47.412;9.742;2023-01-16T02:29:47;0.90;99.90
36670;DHT22;22662;47.412;9.742;2023-01-16T02:46:45;0.90;99.90
36670;DHT22;22662;47.412;9.742;2023-01-16T02:49:29;0.80;99.90
36670;DHT22;22662;47.412;9.742;2023-01-16T02:52:01;0.80;99.90
36670;DHT22;22662;47.412;9.742;2023-01-16T02:54:41;0.70;99.90
36670;DHT22;22662;47.412;9.742;2023-01-16T02:57:20;0.70;99.90
36670;DHT22;22662;47.412;9.742;2023-01-16T02:59:48;0.70;99.90
36670;DHT22;22662;47.412;9.742;2023-01-16T03:02:14;0.70;99.90
36670;DHT22;22662;47.412;9.742;2023-01-16T03:07:16;0.70;99.90
36670;DHT22;22662;47.412;9.742;2023-01-16T03:09:51;0.70;99.90
36670;DHT22;22662;47.412;9.742;2023-01-16T03:12:36;0.60;99.90
36670;DHT22;22662;47.412;9.742;2023-01-16T03:15:30;0.60;99.90
36670;DHT22;22662;47.412;9.742;2023-01-16T03:26:19;0.50;99.90
36670;DHT22;22662;47.412;9.742;2023-01-16T03:32:09;0.60;99.90
36670;DHT22;22662;47.412;9.742;2023-01-16T03:34:51;0.60;99.90
36670;DHT22;22662;47.412;9.742;2023-01-16T03:37:41;0.60;99.90
36670;DHT22;22662;47.412;9.742;2023-01-16T03:40:12;0.60;99.90
36670;DHT22;22662;47.412;9.742;2023-01-16T03:42:49;0.50;99.90
36670;DHT22;22662;47.412;9.742;2023-01-16T03:45:34;0.50;99.90
36670;DHT22;22662;47.412;9.742;2023-01-16T03:48:07;0.40;99.90
36670;DHT22;22662;47.412;9.742;2023-01-16T03:50:36;0.40;99.90
36670;DHT22;22662;47.412;9.742;2023-01-16T03:53:07;0.40;99.90
36670;DHT22;22662;47.412;9.742;2023-01-16T03:58:39;0.30;99.90
36670;DHT22;22662;47.412;9.742;2023-01-16T04:01:53;0.30;99.90
36670;DHT22;22662;47.412;9.742;2023-01-16T04:04:22;0.20;99.90
36670;DHT22;22662;47.412;9.742;2023-01-16T04:07:12;0.20;99.90
36670;DHT22;22662;47.412;9.742;2023-01-16T04:09:53;0.10;99.90
36670;DHT22;22662;47.412;9.742;2023-01-16T04:12:23;0.00;99.90
36670;DHT22;22662;47.412;9.742;2023-01-16T04:14:59;0.10;99.90
36670;DHT22;22662;47.412;9.742;2023-01-16T04:17:26;0.00;99.90
36670;DHT22;22662;47.412;9.742;2023-01-16T04:19:52;0.00;99.90
36670;DHT22;22662;47.412;9.742;2023-01-16T04:22:23;-0.10;99.90
36670;DHT22;22662;47.412;9.742;2023-01-16T04:24:51;-0.10;99.90
36670;DHT22;22662;47.412;9.742;2023-01-16T04:27:17;-0.10;99.90
36670;DHT22;22662;47.412;9.742;2023-01-16T04:29:44;-0.10;99.90
36670;DHT22;22662;47.412;9.742;2023-01-16T04:32:09;-0.20;99.90
36670;DHT22;22662;47.412;9.742;2023-01-16T04:34:35;-0.20;99.90
36670;DHT22;22662;47.412;9.742;2023-01-16T04:37:01;-0.30;99.90
36670;DHT22;22662;47.412;9.742;2023-01-16T04:39:26;-0.30;99.90
36670;DHT22;22662;47.412;9.742;2023-01-16T04:41:52;-0.30;99.90
36670;DHT22;22662;47.412;9.742;2023-01-16T04:44:18;-0.30;99.90
36670;DHT22;22662;47.412;9.742;2023-01-16T04:46:44;-0.30;99.90
36670;DHT22;22662;47.412;9.742;2023-01-16T04:49:10;-0.20;99.90
36670;DHT22;22662;47.412;9.742;2023-01-16T04:51:36;-0.20;99.90
36670;DHT22;22662;47.412;9.742;2023-01-16T04:54:07;-0.20;99.90
36670;DHT22;22662;47.412;9.742;2023-01-16T04:56:33;-0.20;99.90
36670;DHT22;22662;47.412;9.742;2023-01-16T04:58:59;-0.10;99.90
36670;DHT22;22662;47.412;9.742;2023-01-16T05:01:25;-0.10;99.90
36670;DHT22;22662;47.412;9.742;2023-01-16T05:03:51;-0.10;99.90
36670;DHT22;22662;47.412;9.742;2023-01-16T05:06:17;-0.10;99.90
36670;DHT22;22662;47.412;9.742;2023-01-16T05:08:42;-0.10;99.90
36670;DHT22;22662;47.412;9.742;2023-01-16T05:11:08;-0.20;99.90
36670;DHT22;22662;47.412;9.742;2023-01-16T05:13:34;-0.20;99.90
36670;DHT22;22662;47.412;9.742;2023-01-16T05:16:00;-0.30;99.90
36670;DHT22;22662;47.412;9.742;2023-01-16T05:18:25;-0.30;99.90
36670;DHT22;22662;47.412;9.742;2023-01-16T05:20:51;-0.40;99.90
36670;DHT22;22662;47.412;9.742;2023-01-16T05:23:17;-0.40;99.90
36670;DHT22;22662;47.412;9.742;2023-01-16T05:25:43;-0.40;99.90
36670;DHT22;22662;47.412;9.742;2023-01-16T05:28:09;-0.50;99.90
36670;DHT22;22662;47.412;9.742;2023-01-16T05:30:34;-0.50;99.90
36670;DHT22;22662;47.412;9.742;2023-01-16T05:33:00;-0.50;99.90
36670;DHT22;22662;47.412;9.742;2023-01-16T05:35:27;-0.50;99.90
36670;DHT22;22662;47.412;9.742;2023-01-16T05:37:53;-0.50;99.90
36670;DHT22;22662;47.412;9.742;2023-01-16T05:40:18;-0.50;99.90
36670;DHT22;22662;47.412;9.742;2023-01-16T05:42:45;-0.50;99.90
36670;DHT22;22662;47.412;9.742;2023-01-16T05:45:13;-0.40;99.90
36670;DHT22;22662;47.412;9.742;2023-01-16T05:47:39;-0.50;99.90
36670;DHT22;22662;47.412;9.742;2023-01-16T05:50:05;-0.50;99.90
36670;DHT22;22662;47.412;9.742;2023-01-16T05:52:31;-0.40;99.90
36670;DHT22;22662;47.412;9.742;2023-01-16T05:54:56;-0.50;99.90
36670;DHT22;22662;47.412;9.742;2023-01-16T05:57:22;-0.50;99.90
36670;DHT22;22662;47.412;9.742;2023-01-16T05:59:51;-0.50;99.90
36670;DHT22;22662;47.412;9.742;2023-01-16T06:02:19;-0.50;99.90
36670;DHT22;22662;47.412;9.742;2023-01-16T06:04:45;-0.50;99.90
36670;DHT22;22662;47.412;9.742;2023-01-16T06:07:11;-0.50;99.90
36670;DHT22;22662;47.412;9.742;2023-01-16T06:09:37;-0.50;99.90
36670;DHT22;22662;47.412;9.742;2023-01-16T06:12:03;-0.60;99.90
36670;DHT22;22662;47.412;9.742;2023-01-16T06:14:29;-0.60;99.90
36670;DHT22;22662;47.412;9.742;2023-01-16T06:16:55;-0.60;99.90
36670;DHT22;22662;47.412;9.742;2023-01-16T06:19:21;-0.60;99.90
36670;DHT22;22662;47.412;9.742;2023-01-16T06:21:46;-0.70;99.90
36670;DHT22;22662;47.412;9.742;2023-01-16T06:24:12;-0.60;99.90
36670;DHT22;22662;47.412;9.742;2023-01-16T06:26:37;-0.60;99.90
36670;DHT22;22662;47.412;9.742;2023-01-16T06:29:03;-0.50;99.90
36670;DHT22;22662;47.412;9.742;2023-01-16T06:31:29;-0.50;99.90
36670;DHT22;22662;47.412;9.742;2023-01-16T06:33:54;-0.50;99.90
36670;DHT22;22662;47.412;9.742;2023-01-16T06:36:20;-0.30;99.90
36670;DHT22;22662;47.412;9.742;2023-01-16T06:38:46;-0.20;99.90
36670;DHT22;22662;47.412;9.742;2023-01-16T06:41:12;-0.10;99.90
36670;DHT22;22662;47.412;9.742;2023-01-16T06:43:37;0.20;99.90
36670;DHT22;22662;47.412;9.742;2023-01-16T06:46:03;0.20;99.90
36670;DHT22;22662;47.412;9.742;2023-01-16T06:48:29;0.20;99.90
36670;DHT22;22662;47.412;9.742;2023-01-16T06:50:54;0.00;99.90
36670;DHT22;22662;47.412;9.742;2023-01-16T06:53:20;0.00;99.90
36670;DHT22;22662;47.412;9.742;2023-01-16T06:55:46;-0.10;99.90
36670;DHT22;22662;47.412;9.742;2023-01-16T06:58:11;0.00;99.90
36670;DHT22;22662;47.412;9.742;2023-01-16T07:00:37;0.10;99.90
36670;DHT22;22662;47.412;9.742;2023-01-16T07:03:04;0.20;99.90
36670;DHT22;22662;47.412;9.742;2023-01-16T07:05:30;0.20;99.90
36670;DHT22;22662;47.412;9.742;2023-01-16T07:07:57;0.20;99.90
36670;DHT22;22662;47.412;9.742;2023-01-16T07:10:23;0.30;99.90
36670;DHT22;22662;47.412;9.742;2023-01-16T07:12:50;0.40;99.90
36670;DHT22;22662;47.412;9.742;2023-01-16T07:15:16;0.50;99.90
36670;DHT22;22662;47.412;9.742;2023-01-16T07:18:00;0.70;99.90
36670;DHT22;22662;47.412;9.742;2023-01-16T07:20:53;0.90;99.90
36670;DHT22;22662;47.412;9.742;2023-01-16T07:23:41;0.90;99.90
36670;DHT22;22662;47.412;9.742;2023-01-16T07:26:08;1.00;99.90
36670;DHT22;22662;47.412;9.742;2023-01-16T07:28:34;1.00;99.90
36670;DHT22;22662;47.412;9.742;2023-01-16T07:31:02;0.90;99.90
36670;DHT22;22662;47.412;9.742;2023-01-16T07:33:29;0.80;99.90
36670;DHT22;22662;47.412;9.742;2023-01-16T07:35:55;0.90;99.90
36670;DHT22;22662;47.412;9.742;2023-01-16T07:38:20;0.90;99.90
36670;DHT22;22662;47.412;9.742;2023-01-16T07:40:46;1.00;99.90
36670;DHT22;22662;47.412;9.742;2023-01-16T07:43:12;1.00;99.90
36670;DHT22;22662;47.412;9.742;2023-01-16T07:45:37;1.10;99.90
36670;DHT22;22662;47.412;9.742;2023-01-16T07:48:03;1.20;99.90
36670;DHT22;22662;47.412;9.742;2023-01-16T07:50:29;1.20;99.90
36670;DHT22;22662;47.412;9.742;2023-01-16T07:52:55;1.30;99.90
36670;DHT22;22662;47.412;9.742;2023-01-16T07:55:20;1.30;99.90
36670;DHT22;22662;47.412;9.742;2023-01-16T07:57:46;1.40;99.90
36670;DHT22;22662;47.412;9.742;2023-01-16T08:00:12;1.50;99.90
36670;DHT22;22662;47.412;9.742;2023-01-16T08:02:39;1.50;99.90
36670;DHT22;22662;47.412;9.742;2023-01-16T08:05:05;1.60;99.90
36670;DHT22;22662;47.412;9.742;2023-01-16T08:07:31;1.60;99.90
36670;DHT22;22662;47.412;9.742;2023-01-16T08:09:57;1.60;99.90
36670;DHT22;22662;47.412;9.742;2023-01-16T08:12:23;1.60;99.90
36670;DHT22;22662;47.412;9.742;2023-01-16T08:14:48;1.70;99.90
36670;DHT22;22662;47.412;9.742;2023-01-16T08:17:14;1.50;99.90
36670;DHT22;22662;47.412;9.742;2023-01-16T08:19:40;1.40;99.90
36670;DHT22;22662;47.412;9.742;2023-01-16T08:22:06;1.30;99.90
36670;DHT22;22662;47.412;9.742;2023-01-16T08:24:32;1.10;99.90
36670;DHT22;22662;47.412;9.742;2023-01-16T08:26:57;1.20;99.90
36670;DHT22;22662;47.412;9.742;2023-01-16T08:29:24;1.50;99.90
36670;DHT22;22662;47.412;9.742;2023-01-16T08:31:50;1.50;99.90
36670;DHT22;22662;47.412;9.742;2023-01-16T08:34:16;1.60;99.90
36670;DHT22;22662;47.412;9.742;2023-01-16T08:36:42;1.70;99.90
36670;DHT22;22662;47.412;9.742;2023-01-16T08:39:10;1.80;99.90
36670;DHT22;22662;47.412;9.742;2023-01-16T08:41:36;1.70;99.90
36670;DHT22;22662;47.412;9.742;2023-01-16T08:44:20;1.90;99.90
36670;DHT22;22662;47.412;9.742;2023-01-16T08:47:14;2.10;99.90
36670;DHT22;22662;47.412;9.742;2023-01-16T08:50:02;2.30;99.90
36670;DHT22;22662;47.412;9.742;2023-01-16T08:52:47;2.50;99.90
36670;DHT22;22662;47.412;9.742;2023-01-16T08:55:12;2.70;99.90
36670;DHT22;22662;47.412;9.742;2023-01-16T08:57:38;2.90;99.90
36670;DHT22;22662;47.412;9.742;2023-01-16T09:00:06;2.90;99.90
36670;DHT22;22662;47.412;9.742;2023-01-16T09:02:32;2.90;99.90
36670;DHT22;22662;47.412;9.742;2023-01-16T09:05:01;3.00;99.90
36670;DHT22;22662;47.412;9.742;2023-01-16T09:07:27;3.10;99.90
36670;DHT22;22662;47.412;9.742;2023-01-16T09:09:54;3.30;99.90
36670;DHT22;22662;47.412;9.742;2023-01-16T09:12:20;3.50;99.90
36670;DHT22;22662;47.412;9.742;2023-01-16T09:15:05;3.50;99.90
36670;DHT22;22662;47.412;9.742;2023-01-16T09:17:31;3.70;99.90
36670;DHT22;22662;47.412;9.742;2023-01-16T09:19:56;3.90;99.90
36670;DHT22;22662;47.412;9.742;2023-01-16T09:22:22;3.90;99.90
36670;DHT22;22662;47.412;9.742;2023-01-16T09:24:48;3.80;99.90
36670;DHT22;22662;47.412;9.742;2023-01-16T09:27:14;3.80;99.90
36670;DHT22;22662;47.412;9.742;2023-01-16T09:29:41;3.90;99.90
36670;DHT22;22662;47.412;9.742;2023-01-16T09:32:07;3.90;99.90
36670;DHT22;22662;47.412;9.742;2023-01-16T09:34:38;4.10;99.90
36670;DHT22;22662;47.412;9.742;2023-01-16T09:37:07;4.20;99.90
36670;DHT22;22662;47.412;9.742;2023-01-16T09:39:33;4.30;99.90
36670;DHT22;22662;47.412;9.742;2023-01-16T09:44:48;4.50;99.90
36670;DHT22;22662;47.412;9.742;2023-01-16T09:47:17;4.60;99.90
36670;DHT22;22662;47.412;9.742;2023-01-16T09:49:51;4.50;99.90
36670;DHT22;22662;47.412;9.742;2023-01-16T09:52:23;4.10;99.90
36670;DHT22;22662;47.412;9.742;2023-01-16T09:55:18;3.70;99.90
36670;DHT22;22662;47.412;9.742;2023-01-16T09:58:07;3.70;99.90
36670;DHT22;22662;47.412;9.742;2023-01-16T10:00:55;3.90;99.90
36670;DHT22;22662;47.412;9.742;2023-01-16T10:03:21;3.90;99.90
36670;DHT22;22662;47.412;9.742;2023-01-16T10:17:22;4.00;99.90
36670;DHT22;22662;47.412;9.742;2023-01-16T10:30:30;3.80;99.90
36670;DHT22;22662;47.412;9.742;2023-01-16T10:35:42;3.90;99.90
36670;DHT22;22662;47.412;9.742;2023-01-16T10:38:39;4.00;99.90
36670;DHT22;22662;47.412;9.742;2023-01-16T10:41:18;4.00;99.90
36670;DHT22;22662;47.412;9.742;2023-01-16T10:47:19;3.90;99.90
36670;DHT22;22662;47.412;9.742;2023-01-16T10:50:05;3.90;99.90
36670;DHT22;22662;47.412;9.742;2023-01-16T10:52:32;3.90;99.90
36670;DHT22;22662;47.412;9.742;2023-01-16T10:54:58;3.90;99.90
36670;DHT22;22662;47.412;9.742;2023-01-16T10:57:25;3.80;99.90
36670;DHT22;22662;47.412;9.742;2023-01-16T11:00:00;3.90;99.90
36670;DHT22;22662;47.412;9.742;2023-01-16T11:05:00;3.80;99.90
36670;DHT22;22662;47.412;9.742;2023-01-16T11:07:28;3.80;99.90
36670;DHT22;22662;47.412;9.742;2023-01-16T11:09:55;3.70;99.90
36670;DHT22;22662;47.412;9.742;2023-01-16T11:12:28;3.70;99.90
36670;DHT22;22662;47.412;9.742;2023-01-16T11:15:20;3.70;99.90
36670;DHT22;22662;47.412;9.742;2023-01-16T11:18:29;3.70;99.90
36670;DHT22;22662;47.412;9.742;2023-01-16T11:21:16;3.60;99.90
36670;DHT22;22662;47.412;9.742;2023-01-16T11:23:48;3.60;99.90
36670;DHT22;22662;47.412;9.742;2023-01-16T11:26:15;3.50;99.90
36670;DHT22;22662;47.412;9.742;2023-01-16T11:28:46;3.50;99.90
36670;DHT22;22662;47.412;9.742;2023-01-16T11:31:18;3.40;99.90
36670;DHT22;22662;47.412;9.742;2023-01-16T11:33:51;3.40;99.90
36670;DHT22;22662;47.412;9.742;2023-01-16T11:36:21;3.50;99.90
36670;DHT22;22662;47.412;9.742;2023-01-16T11:38:48;3.50;99.90
36670;DHT22;22662;47.412;9.742;2023-01-16T11:41:18;3.40;99.90
36670;DHT22;22662;47.412;9.742;2023-01-16T11:43:49;3.40;99.90
36670;DHT22;22662;47.412;9.742;2023-01-16T11:46:49;3.40;99.90
36670;DHT22;22662;47.412;9.742;2023-01-16T11:49:23;3.40;99.90
36670;DHT22;22662;47.412;9.742;2023-01-16T11:51:52;3.40;99.90
36670;DHT22;22662;47.412;9.742;2023-01-16T11:54:25;3.30;99.90
36670;DHT22;22662;47.412;9.742;2023-01-16T12:00:05;3.40;99.90
36670;DHT22;22662;47.412;9.742;2023-01-16T12:03:01;3.60;99.90
36670;DHT22;22662;47.412;9.742;2023-01-16T12:08:58;3.60;99.90
36670;DHT22;22662;47.412;9.742;2023-01-16T12:14:49;3.80;99.90
36670;DHT22;22662;47.412;9.742;2023-01-16T12:20:27;3.90;99.90
36670;DHT22;22662;47.412;9.742;2023-01-16T12:23:02;4.00;99.90
36670;DHT22;22662;47.412;9.742;2023-01-16T12:26:10;4.00;99.90
36670;DHT22;22662;47.412;9.742;2023-01-16T12:42:59;4.00;99.90
36670;DHT22;22662;47.412;9.742;2023-01-16T12:46:05;4.10;99.90
36670;DHT22;22662;47.412;9.742;2023-01-16T12:51:26;4.10;99.90
36670;DHT22;22662;47.412;9.742;2023-01-16T12:56:54;4.30;99.90
36670;DHT22;22662;47.412;9.742;2023-01-16T12:59:23;4.30;99.90
36670;DHT22;22662;47.412;9.742;2023-01-16T13:01:55;4.60;99.90
36670;DHT22;22662;47.412;9.742;2023-01-16T13:04:30;4.60;99.90
36670;DHT22;22662;47.412;9.742;2023-01-16T13:06:58;4.60;99.90
36670;DHT22;22662;47.412;9.742;2023-01-16T13:09:59;4.50;99.90
36670;DHT22;22662;47.412;9.742;2023-01-16T13:12:46;4.60;99.90
36670;DHT22;22662;47.412;9.742;2023-01-16T13:15:34;4.50;99.90
36670;DHT22;22662;47.412;9.742;2023-01-16T13:18:09;4.60;99.90
36670;DHT22;22662;47.412;9.742;2023-01-16T13:20:37;4.70;99.90
36670;DHT22;22662;47.412;9.742;2023-01-16T13:23:09;4.90;99.90
36670;DHT22;22662;47.412;9.742;2023-01-16T13:25:42;4.90;99.90
36670;DHT22;22662;47.412;9.742;2023-01-16T13:31:00;4.80;99.90
36670;DHT22;22662;47.412;9.742;2023-01-16T13:33:33;4.70;99.90
36670;DHT22;22662;47.412;9.742;2023-01-16T13:39:05;4.60;99.90
36670;DHT22;22662;47.412;9.742;2023-01-16T13:41:30;4.60;99.90
36670;DHT22;22662;47.412;9.742;2023-01-16T13:44:34;4.60;99.90
36670;DHT22;22662;47.412;9.742;2023-01-16T13:47:25;4.70;99.90
36670;DHT22;22662;47.412;9.742;2023-01-16T13:49:55;4.70;99.90
36670;DHT22;22662;47.412;9.742;2023-01-16T13:52:25;4.90;99.90
36670;DHT22;22662;47.412;9.742;2023-01-16T13:54:56;5.20;99.90
36670;DHT22;22662;47.412;9.742;2023-01-16T13:57:23;5.40;99.90
36670;DHT22;22662;47.412;9.742;2023-01-16T13:59:59;5.50;99.90
36670;DHT22;22662;47.412;9.742;2023-01-16T14:13:36;5.30;99.90
36670;DHT22;22662;47.412;9.742;2023-01-16T14:16:29;5.20;99.90
36670;DHT22;22662;47.412;9.742;2023-01-16T14:19:23;5.20;99.90
36670;DHT22;22662;47.412;9.742;2023-01-16T14:21:49;5.30;99.90
36670;DHT22;22662;47.412;9.742;2023-01-16T14:24:50;5.40;99.90
36670;DHT22;22662;47.412;9.742;2023-01-16T14:27:39;5.70;99.90
36670;DHT22;22662;47.412;9.742;2023-01-16T14:30:15;5.80;99.90
36670;DHT22;22662;47.412;9.742;2023-01-16T14:32:46;5.90;99.90
36670;DHT22;22662;47.412;9.742;2023-01-16T14:35:15;6.00;99.90
36670;DHT22;22662;47.412;9.742;2023-01-16T14:37:45;6.10;99.90
36670;DHT22;22662;47.412;9.742;2023-01-16T14:40:23;6.10;99.90
36670;DHT22;22662;47.412;9.742;2023-01-16T14:43:16;6.10;99.90
36670;DHT22;22662;47.412;9.742;2023-01-16T14:58:12;5.10;99.90
36670;DHT22;22662;47.412;9.742;2023-01-16T15:00:39;4.90;99.90
36670;DHT22;22662;47.412;9.742;2023-01-16T15:03:14;4.80;99.90
36670;DHT22;22662;47.412;9.742;2023-01-16T15:05:57;4.70;99.90
36670;DHT22;22662;47.412;9.742;2023-01-16T15:08:27;4.60;99.90
36670;DHT22;22662;47.412;9.742;2023-01-16T15:10:55;4.60;99.90
36670;DHT22;22662;47.412;9.742;2023-01-16T15:13:30;4.60;99.90
36670;DHT22;22662;47.412;9.742;2023-01-16T15:16:17;4.60;99.90
36670;DHT22;22662;47.412;9.742;2023-01-16T15:19:15;4.60;99.90
36670;DHT22;22662;47.412;9.742;2023-01-16T15:22:00;4.60;99.90
36670;DHT22;22662;47.412;9.742;2023-01-16T15:24:26;4.50;99.90
36670;DHT22;22662;47.412;9.742;2023-01-16T15:26:55;4.40;99.90
36670;DHT22;22662;47.412;9.742;2023-01-16T15:29:51;4.40;99.90
36670;DHT22;22662;47.412;9.742;2023-01-16T15:32:15;4.20;99.90
36670;DHT22;22662;47.412;9.742;2023-01-16T15:34:46;4.10;99.90
36670;DHT22;22662;47.412;9.742;2023-01-16T15:37:33;4.10;99.90
36670;DHT22;22662;47.412;9.742;2023-01-16T15:39:58;4.10;99.90
36670;DHT22;22662;47.412;9.742;2023-01-16T15:42:29;4.20;99.90
36670;DHT22;22662;47.412;9.742;2023-01-16T15:45:16;4.20;99.90
36670;DHT22;22662;47.412;9.742;2023-01-16T15:48:16;4.10;99.90
36670;DHT22;22662;47.412;9.742;2023-01-16T15:50:57;4.00;99.90
36670;DHT22;22662;47.412;9.742;2023-01-16T15:53:30;4.00;99.90
36670;DHT22;22662;47.412;9.742;2023-01-16T15:56:23;3.90;99.90
36670;DHT22;22662;47.412;9.742;2023-01-16T15:58:51;3.90;99.90
36670;DHT22;22662;47.412;9.742;2023-01-16T16:03:53;4.00;99.90
36670;DHT22;22662;47.412;9.742;2023-01-16T16:06:19;4.10;99.90
36670;DHT22;22662;47.412;9.742;2023-01-16T16:08:47;4.10;99.90
36670;DHT22;22662;47.412;9.742;2023-01-16T16:14:01;4.20;99.90
36670;DHT22;22662;47.412;9.742;2023-01-16T16:16:27;4.20;99.90
36670;DHT22;22662;47.412;9.742;2023-01-16T16:19:32;4.30;99.90
36670;DHT22;22662;47.412;9.742;2023-01-16T16:22:01;4.20;99.90
36670;DHT22;22662;47.412;9.742;2023-01-16T16:24:46;4.10;99.90
36670;DHT22;22662;47.412;9.742;2023-01-16T16:27:14;3.90;99.90
36670;DHT22;22662;47.412;9.742;2023-01-16T16:29:41;3.80;99.90
36670;DHT22;22662;47.412;9.742;2023-01-16T16:32:14;3.70;99.90
36670;DHT22;22662;47.412;9.742;2023-01-16T16:34:53;3.70;99.90
36670;DHT22;22662;47.412;9.742;2023-01-16T16:37:20;3.70;99.90
36670;DHT22;22662;47.412;9.742;2023-01-16T16:47:33;3.70;99.90
36670;DHT22;22662;47.412;9.742;2023-01-16T16:50:00;3.70;99.90
36670;DHT22;22662;47.412;9.742;2023-01-16T16:52:29;3.70;99.90
36670;DHT22;22662;47.412;9.742;2023-01-16T16:54:58;3.60;99.90
36670;DHT22;22662;47.412;9.742;2023-01-16T16:57:25;3.60;99.90
36670;DHT22;22662;47.412;9.742;2023-01-16T16:59:53;3.60;99.90
36670;DHT22;22662;47.412;9.742;2023-01-16T17:02:19;3.70;99.90
36670;DHT22;22662;47.412;9.742;2023-01-16T17:04:46;3.80;99.90
36670;DHT22;22662;47.412;9.742;2023-01-16T17:07:12;3.80;99.90
36670;DHT22;22662;47.412;9.742;2023-01-16T17:09:38;3.90;99.90
36670;DHT22;22662;47.412;9.742;2023-01-16T17:12:16;3.90;99.90
36670;DHT22;22662;47.412;9.742;2023-01-16T17:14:42;3.90;99.90
36670;DHT22;22662;47.412;9.742;2023-01-16T17:17:12;4.00;99.90
36670;DHT22;22662;47.412;9.742;2023-01-16T17:19:38;4.00;99.90
36670;DHT22;22662;47.412;9.742;2023-01-16T17:22:04;4.00;99.90
36670;DHT22;22662;47.412;9.742;2023-01-16T17:24:30;4.00;99.90
36670;DHT22;22662;47.412;9.742;2023-01-16T17:26:56;4.20;99.90
36670;DHT22;22662;47.412;9.742;2023-01-16T17:29:22;4.10;99.90
36670;DHT22;22662;47.412;9.742;2023-01-16T17:31:48;4.10;99.90
36670;DHT22;22662;47.412;9.742;2023-01-16T17:34:16;4.20;99.90
36670;DHT22;22662;47.412;9.742;2023-01-16T17:36:42;4.40;99.90
36670;DHT22;22662;47.412;9.742;2023-01-16T17:39:08;4.40;99.90
36670;DHT22;22662;47.412;9.742;2023-01-16T17:41:38;4.50;99.90
36670;DHT22;22662;47.412;9.742;2023-01-16T17:44:21;4.40;99.90
36670;DHT22;22662;47.412;9.742;2023-01-16T17:47:06;4.50;99.90
36670;DHT22;22662;47.412;9.742;2023-01-16T17:49:32;4.60;99.90
36670;DHT22;22662;47.412;9.742;2023-01-16T17:52:18;4.80;99.90
36670;DHT22;22662;47.412;9.742;2023-01-16T17:54:44;4.80;99.90
36670;DHT22;22662;47.412;9.742;2023-01-16T17:57:28;4.80;99.90
36670;DHT22;22662;47.412;9.742;2023-01-16T17:59:53;4.70;99.90
36670;DHT22;22662;47.412;9.742;2023-01-16T18:02:19;4.80;99.90
36670;DHT22;22662;47.412;9.742;2023-01-16T18:04:45;4.70;99.90
36670;DHT22;22662;47.412;9.742;2023-01-16T18:07:11;4.80;99.90
36670;DHT22;22662;47.412;9.742;2023-01-16T18:09:39;4.80;99.90
36670;DHT22;22662;47.412;9.742;2023-01-16T18:12:05;4.90;99.90
36670;DHT22;22662;47.412;9.742;2023-01-16T18:14:49;4.90;99.90
36670;DHT22;22662;47.412;9.742;2023-01-16T18:17:33;5.00;99.90
36670;DHT22;22662;47.412;9.742;2023-01-16T18:19:59;4.90;99.90
36670;DHT22;22662;47.412;9.742;2023-01-16T18:22:29;4.90;99.90
36670;DHT22;22662;47.412;9.742;2023-01-16T18:24:57;5.00;99.90
36670;DHT22;22662;47.412;9.742;2023-01-16T18:27:23;5.10;99.90
36670;DHT22;22662;47.412;9.742;2023-01-16T18:29:49;5.00;99.90
36670;DHT22;22662;47.412;9.742;2023-01-16T18:32:16;4.90;99.90
36670;DHT22;22662;47.412;9.742;2023-01-16T18:37:21;4.90;99.90
36670;DHT22;22662;47.412;9.742;2023-01-16T18:39:47;4.90;99.90
36670;DHT22;22662;47.412;9.742;2023-01-16T18:42:31;4.90;99.90
36670;DHT22;22662;47.412;9.742;2023-01-16T18:45:15;4.90;99.90
36670;DHT22;22662;47.412;9.742;2023-01-16T18:48:00;4.90;99.90